sensor_id;sensor_type;location;lat;lon;timestamp;P1;durP1;ratioP1;P2;durP2;ratioP2
54683;SDS011;40582;53.100;6.686;2022-12-05T00:01:20;43.80;;;26.60;;
54683;SDS011;40582;53.100;6.686;2022-12-05T00:03:50;42.35;;;26.35;;
54683;SDS011;40582;53.100;6.686;2022-12-05T00:06:18;39.08;;;25.00;;
54683;SDS011;40582;53.100;6.686;2022-12-05T00:08:44;45.22;;;27.27;;
54683;SDS011;40582;53.100;6.686;2022-12-05T00:11:12;46.00;;;27.20;;
54683;SDS011;40582;53.100;6.686;2022-12-05T00:13:39;43.17;;;26.60;;
54683;SDS011;40582;53.100;6.686;2022-12-05T00:16:07;45.17;;;26.48;;
54683;SDS011;40582;53.100;6.686;2022-12-05T00:18:38;39.95;;;25.40;;
54683;SDS011;40582;53.100;6.686;2022-12-05T00:21:04;45.88;;;26.33;;
54683;SDS011;40582;53.100;6.686;2022-12-05T00:23:31;37.45;;;24.55;;
54683;SDS011;40582;53.100;6.686;2022-12-05T00:25:56;40.47;;;24.80;;
54683;SDS011;40582;53.100;6.686;2022-12-05T00:28:26;41.72;;;26.08;;
54683;SDS011;40582;53.100;6.686;2022-12-05T00:30:52;40.45;;;25.15;;
54683;SDS011;40582;53.100;6.686;2022-12-05T00:33:17;41.95;;;25.63;;
54683;SDS011;40582;53.100;6.686;2022-12-05T00:35:43;43.05;;;26.65;;
54683;SDS011;40582;53.100;6.686;2022-12-05T00:38:08;45.92;;;26.92;;
54683;SDS011;40582;53.100;6.686;2022-12-05T00:40:34;47.78;;;28.08;;
54683;SDS011;40582;53.100;6.686;2022-12-05T00:43:00;46.53;;;27.67;;
54683;SDS011;40582;53.100;6.686;2022-12-05T00:45:26;43.35;;;27.45;;
54683;SDS011;40582;53.100;6.686;2022-12-05T00:47:51;51.38;;;29.58;;
54683;SDS011;40582;53.100;6.686;2022-12-05T00:50:17;51.42;;;29.90;;
54683;SDS011;40582;53.100;6.686;2022-12-05T00:52:43;50.75;;;29.75;;
54683;SDS011;40582;53.100;6.686;2022-12-05T00:55:09;45.70;;;28.42;;
54683;SDS011;40582;53.100;6.686;2022-12-05T00:57:34;54.55;;;30.67;;
54683;SDS011;40582;53.100;6.686;2022-12-05T01:00:00;44.85;;;29.73;;
54683;SDS011;40582;53.100;6.686;2022-12-05T01:02:26;50.85;;;29.63;;
54683;SDS011;40582;53.100;6.686;2022-12-05T01:04:52;50.95;;;29.83;;
54683;SDS011;40582;53.100;6.686;2022-12-05T01:07:17;51.15;;;30.63;;
54683;SDS011;40582;53.100;6.686;2022-12-05T01:09:43;52.35;;;30.23;;
54683;SDS011;40582;53.100;6.686;2022-12-05T01:12:09;47.90;;;28.83;;
54683;SDS011;40582;53.100;6.686;2022-12-05T01:14:34;53.15;;;30.10;;
54683;SDS011;40582;53.100;6.686;2022-12-05T01:17:00;46.38;;;28.27;;
54683;SDS011;40582;53.100;6.686;2022-12-05T01:19:27;53.50;;;31.00;;
54683;SDS011;40582;53.100;6.686;2022-12-05T01:21:54;49.30;;;29.75;;
54683;SDS011;40582;53.100;6.686;2022-12-05T01:24:20;49.83;;;29.00;;
54683;SDS011;40582;53.100;6.686;2022-12-05T01:26:47;50.53;;;30.23;;
54683;SDS011;40582;53.100;6.686;2022-12-05T01:29:14;57.63;;;31.55;;
54683;SDS011;40582;53.100;6.686;2022-12-05T01:31:41;55.53;;;30.85;;
54683;SDS011;40582;53.100;6.686;2022-12-05T01:34:09;51.50;;;31.42;;
54683;SDS011;40582;53.100;6.686;2022-12-05T01:36:37;57.67;;;32.25;;
54683;SDS011;40582;53.100;6.686;2022-12-05T01:39:04;47.50;;;29.80;;
54683;SDS011;40582;53.100;6.686;2022-12-05T01:41:32;55.22;;;30.17;;
54683;SDS011;40582;53.100;6.686;2022-12-05T01:46:51;51.85;;;31.20;;
54683;SDS011;40582;53.100;6.686;2022-12-05T01:51:53;55.08;;;31.05;;
54683;SDS011;40582;53.100;6.686;2022-12-05T01:54:22;52.00;;;29.20;;
54683;SDS011;40582;53.100;6.686;2022-12-05T01:56:49;50.90;;;29.50;;
54683;SDS011;40582;53.100;6.686;2022-12-05T01:59:20;47.78;;;29.65;;
54683;SDS011;40582;53.100;6.686;2022-12-05T02:01:46;45.90;;;27.85;;
54683;SDS011;40582;53.100;6.686;2022-12-05T02:04:12;48.63;;;28.27;;
54683;SDS011;40582;53.100;6.686;2022-12-05T02:06:38;41.78;;;27.33;;
54683;SDS011;40582;53.100;6.686;2022-12-05T02:09:04;43.75;;;26.95;;
54683;SDS011;40582;53.100;6.686;2022-12-05T02:11:30;50.42;;;27.17;;
54683;SDS011;40582;53.100;6.686;2022-12-05T02:16:57;42.15;;;25.65;;
54683;SDS011;40582;53.100;6.686;2022-12-05T02:30:40;34.40;;;21.25;;
54683;SDS011;40582;53.100;6.686;2022-12-05T02:33:41;31.83;;;21.50;;
54683;SDS011;40582;53.100;6.686;2022-12-05T02:39:20;31.70;;;20.42;;
54683;SDS011;40582;53.100;6.686;2022-12-05T02:42:12;31.83;;;20.73;;
54683;SDS011;40582;53.100;6.686;2022-12-05T02:47:48;36.88;;;22.75;;
54683;SDS011;40582;53.100;6.686;2022-12-05T02:50:17;30.40;;;21.23;;
54683;SDS011;40582;53.100;6.686;2022-12-05T02:52:46;41.38;;;22.48;;
54683;SDS011;40582;53.100;6.686;2022-12-05T02:55:14;36.78;;;21.45;;
54683;SDS011;40582;53.100;6.686;2022-12-05T02:57:43;33.90;;;21.45;;
54683;SDS011;40582;53.100;6.686;2022-12-05T03:00:12;32.83;;;21.85;;
54683;SDS011;40582;53.100;6.686;2022-12-05T03:02:38;29.48;;;20.30;;
54683;SDS011;40582;53.100;6.686;2022-12-05T03:07:49;33.72;;;21.17;;
54683;SDS011;40582;53.100;6.686;2022-12-05T03:10:18;36.70;;;20.77;;
54683;SDS011;40582;53.100;6.686;2022-12-05T03:12:49;31.33;;;20.20;;
54683;SDS011;40582;53.100;6.686;2022-12-05T03:15:20;33.20;;;19.88;;
54683;SDS011;40582;53.100;6.686;2022-12-05T03:17:55;33.65;;;20.40;;
54683;SDS011;40582;53.100;6.686;2022-12-05T03:21:17;32.45;;;19.95;;
54683;SDS011;40582;53.100;6.686;2022-12-05T03:23:22;37.22;;;21.50;;
54683;SDS011;40582;53.100;6.686;2022-12-05T03:28:53;31.95;;;19.70;;
54683;SDS011;40582;53.100;6.686;2022-12-05T03:34:12;33.25;;;20.13;;
54683;SDS011;40582;53.100;6.686;2022-12-05T03:36:44;32.47;;;20.58;;
54683;SDS011;40582;53.100;6.686;2022-12-05T03:41:55;30.35;;;21.00;;
54683;SDS011;40582;53.100;6.686;2022-12-05T03:44:33;31.25;;;19.50;;
54683;SDS011;40582;53.100;6.686;2022-12-05T03:47:40;30.05;;;18.52;;
54683;SDS011;40582;53.100;6.686;2022-12-05T03:52:35;35.28;;;20.58;;
54683;SDS011;40582;53.100;6.686;2022-12-05T03:55:26;28.63;;;16.98;;
54683;SDS011;40582;53.100;6.686;2022-12-05T03:57:57;25.73;;;16.98;;
54683;SDS011;40582;53.100;6.686;2022-12-05T04:00:27;31.80;;;18.05;;
54683;SDS011;40582;53.100;6.686;2022-12-05T04:03:02;23.25;;;16.40;;
54683;SDS011;40582;53.100;6.686;2022-12-05T04:05:45;23.17;;;15.05;;
54683;SDS011;40582;53.100;6.686;2022-12-05T04:08:27;29.45;;;17.77;;
54683;SDS011;40582;53.100;6.686;2022-12-05T04:11:03;28.08;;;15.93;;
54683;SDS011;40582;53.100;6.686;2022-12-05T04:13:42;24.27;;;15.73;;
54683;SDS011;40582;53.100;6.686;2022-12-05T04:16:32;24.05;;;16.23;;
54683;SDS011;40582;53.100;6.686;2022-12-05T04:19:43;24.52;;;14.98;;
54683;SDS011;40582;53.100;6.686;2022-12-05T04:22:31;27.20;;;17.30;;
54683;SDS011;40582;53.100;6.686;2022-12-05T04:24:57;23.25;;;15.70;;
54683;SDS011;40582;53.100;6.686;2022-12-05T04:30:22;21.90;;;15.20;;
54683;SDS011;40582;53.100;6.686;2022-12-05T04:35:42;22.38;;;15.70;;
54683;SDS011;40582;53.100;6.686;2022-12-05T04:38:23;29.85;;;16.55;;
54683;SDS011;40582;53.100;6.686;2022-12-05T04:40:58;23.85;;;15.48;;
54683;SDS011;40582;53.100;6.686;2022-12-05T04:43:27;26.10;;;16.27;;
54683;SDS011;40582;53.100;6.686;2022-12-05T04:45:56;23.05;;;14.30;;
54683;SDS011;40582;53.100;6.686;2022-12-05T04:48:24;29.38;;;15.20;;
54683;SDS011;40582;53.100;6.686;2022-12-05T04:50:52;24.73;;;14.57;;
54683;SDS011;40582;53.100;6.686;2022-12-05T04:53:20;24.17;;;14.95;;
54683;SDS011;40582;53.100;6.686;2022-12-05T04:55:50;23.70;;;15.57;;
54683;SDS011;40582;53.100;6.686;2022-12-05T04:58:20;21.05;;;13.80;;
54683;SDS011;40582;53.100;6.686;2022-12-05T05:00:55;22.58;;;13.95;;
54683;SDS011;40582;53.100;6.686;2022-12-05T05:03:49;19.85;;;13.63;;
54683;SDS011;40582;53.100;6.686;2022-12-05T05:06:18;26.85;;;14.68;;
54683;SDS011;40582;53.100;6.686;2022-12-05T05:08:48;23.25;;;14.65;;
54683;SDS011;40582;53.100;6.686;2022-12-05T05:11:19;27.08;;;15.65;;
54683;SDS011;40582;53.100;6.686;2022-12-05T05:14:03;28.67;;;15.23;;
54683;SDS011;40582;53.100;6.686;2022-12-05T05:16:33;29.35;;;15.68;;
54683;SDS011;40582;53.100;6.686;2022-12-05T05:19:01;22.65;;;15.05;;
54683;SDS011;40582;53.100;6.686;2022-12-05T05:21:28;28.15;;;14.88;;
54683;SDS011;40582;53.100;6.686;2022-12-05T05:23:59;26.50;;;16.00;;
54683;SDS011;40582;53.100;6.686;2022-12-05T05:26:25;22.48;;;14.07;;
54683;SDS011;40582;53.100;6.686;2022-12-05T05:28:52;26.95;;;15.35;;
54683;SDS011;40582;53.100;6.686;2022-12-05T05:31:19;24.70;;;13.88;;
54683;SDS011;40582;53.100;6.686;2022-12-05T05:33:49;26.00;;;15.45;;
54683;SDS011;40582;53.100;6.686;2022-12-05T05:36:16;28.00;;;15.95;;
54683;SDS011;40582;53.100;6.686;2022-12-05T05:38:43;27.70;;;15.68;;
54683;SDS011;40582;53.100;6.686;2022-12-05T05:41:11;25.30;;;15.15;;
54683;SDS011;40582;53.100;6.686;2022-12-05T05:43:42;25.75;;;14.73;;
54683;SDS011;40582;53.100;6.686;2022-12-05T05:46:08;24.17;;;14.13;;
54683;SDS011;40582;53.100;6.686;2022-12-05T05:48:35;21.80;;;13.57;;
54683;SDS011;40582;53.100;6.686;2022-12-05T05:51:02;27.65;;;14.40;;
54683;SDS011;40582;53.100;6.686;2022-12-05T05:53:29;26.73;;;15.00;;
54683;SDS011;40582;53.100;6.686;2022-12-05T05:55:55;23.80;;;14.45;;
54683;SDS011;40582;53.100;6.686;2022-12-05T05:58:20;23.10;;;12.90;;
54683;SDS011;40582;53.100;6.686;2022-12-05T06:00:46;21.23;;;12.77;;
54683;SDS011;40582;53.100;6.686;2022-12-05T06:03:12;22.55;;;13.88;;
54683;SDS011;40582;53.100;6.686;2022-12-05T06:05:38;24.98;;;15.00;;
54683;SDS011;40582;53.100;6.686;2022-12-05T06:08:03;25.20;;;14.60;;
54683;SDS011;40582;53.100;6.686;2022-12-05T06:10:29;27.15;;;14.27;;
54683;SDS011;40582;53.100;6.686;2022-12-05T06:12:55;22.55;;;13.13;;
54683;SDS011;40582;53.100;6.686;2022-12-05T06:15:22;20.60;;;12.40;;
54683;SDS011;40582;53.100;6.686;2022-12-05T06:17:48;18.83;;;12.18;;
54683;SDS011;40582;53.100;6.686;2022-12-05T06:20:14;19.08;;;11.88;;
54683;SDS011;40582;53.100;6.686;2022-12-05T06:22:39;21.00;;;11.95;;
54683;SDS011;40582;53.100;6.686;2022-12-05T06:25:05;19.98;;;12.27;;
54683;SDS011;40582;53.100;6.686;2022-12-05T06:27:32;26.95;;;14.55;;
54683;SDS011;40582;53.100;6.686;2022-12-05T06:29:58;21.20;;;13.40;;
54683;SDS011;40582;53.100;6.686;2022-12-05T06:32:24;21.48;;;12.13;;
54683;SDS011;40582;53.100;6.686;2022-12-05T06:34:49;22.13;;;12.70;;
54683;SDS011;40582;53.100;6.686;2022-12-05T06:37:15;29.17;;;13.88;;
54683;SDS011;40582;53.100;6.686;2022-12-05T06:39:41;20.23;;;12.32;;
54683;SDS011;40582;53.100;6.686;2022-12-05T06:42:07;24.60;;;13.90;;
54683;SDS011;40582;53.100;6.686;2022-12-05T06:44:32;21.00;;;12.95;;
54683;SDS011;40582;53.100;6.686;2022-12-05T06:46:58;24.08;;;14.27;;
54683;SDS011;40582;53.100;6.686;2022-12-05T06:49:23;20.45;;;12.55;;
54683;SDS011;40582;53.100;6.686;2022-12-05T06:51:53;26.75;;;13.73;;
54683;SDS011;40582;53.100;6.686;2022-12-05T06:54:19;25.25;;;13.32;;
54683;SDS011;40582;53.100;6.686;2022-12-05T06:56:45;26.05;;;14.23;;
54683;SDS011;40582;53.100;6.686;2022-12-05T06:59:10;28.90;;;14.50;;
54683;SDS011;40582;53.100;6.686;2022-12-05T07:01:36;27.90;;;14.57;;
54683;SDS011;40582;53.100;6.686;2022-12-05T07:04:10;26.17;;;14.20;;
54683;SDS011;40582;53.100;6.686;2022-12-05T07:06:41;30.27;;;15.07;;
54683;SDS011;40582;53.100;6.686;2022-12-05T07:09:08;28.60;;;14.00;;
54683;SDS011;40582;53.100;6.686;2022-12-05T07:11:34;33.58;;;14.57;;
54683;SDS011;40582;53.100;6.686;2022-12-05T07:14:00;25.52;;;14.52;;
54683;SDS011;40582;53.100;6.686;2022-12-05T07:16:27;26.13;;;14.05;;
54683;SDS011;40582;53.100;6.686;2022-12-05T07:18:53;29.08;;;14.27;;
54683;SDS011;40582;53.100;6.686;2022-12-05T07:21:19;28.75;;;14.70;;
54683;SDS011;40582;53.100;6.686;2022-12-05T07:23:46;26.35;;;14.10;;
54683;SDS011;40582;53.100;6.686;2022-12-05T07:26:14;29.17;;;14.65;;
54683;SDS011;40582;53.100;6.686;2022-12-05T07:28:45;27.98;;;14.38;;
54683;SDS011;40582;53.100;6.686;2022-12-05T07:31:13;31.60;;;15.73;;
54683;SDS011;40582;53.100;6.686;2022-12-05T07:33:40;30.88;;;14.60;;
54683;SDS011;40582;53.100;6.686;2022-12-05T07:36:07;35.03;;;17.45;;
54683;SDS011;40582;53.100;6.686;2022-12-05T07:38:35;34.58;;;16.52;;
54683;SDS011;40582;53.100;6.686;2022-12-05T07:41:05;32.05;;;15.75;;
54683;SDS011;40582;53.100;6.686;2022-12-05T07:43:32;39.42;;;17.88;;
54683;SDS011;40582;53.100;6.686;2022-12-05T07:46:04;31.35;;;16.63;;
54683;SDS011;40582;53.100;6.686;2022-12-05T07:48:31;41.05;;;17.80;;
54683;SDS011;40582;53.100;6.686;2022-12-05T07:50:58;39.08;;;17.13;;
54683;SDS011;40582;53.100;6.686;2022-12-05T07:53:28;38.42;;;16.67;;
54683;SDS011;40582;53.100;6.686;2022-12-05T07:55:54;35.05;;;16.85;;
54683;SDS011;40582;53.100;6.686;2022-12-05T07:58:22;43.40;;;17.20;;
54683;SDS011;40582;53.100;6.686;2022-12-05T08:00:48;33.53;;;16.50;;
54683;SDS011;40582;53.100;6.686;2022-12-05T08:03:14;36.75;;;16.35;;
54683;SDS011;40582;53.100;6.686;2022-12-05T08:05:39;34.10;;;15.98;;
54683;SDS011;40582;53.100;6.686;2022-12-05T08:08:05;34.58;;;15.48;;
54683;SDS011;40582;53.100;6.686;2022-12-05T08:10:30;31.70;;;15.57;;
54683;SDS011;40582;53.100;6.686;2022-12-05T08:12:58;31.02;;;16.25;;
54683;SDS011;40582;53.100;6.686;2022-12-05T08:15:23;35.35;;;16.08;;
54683;SDS011;40582;53.100;6.686;2022-12-05T08:17:49;26.45;;;14.98;;
54683;SDS011;40582;53.100;6.686;2022-12-05T08:20:15;25.20;;;14.18;;
54683;SDS011;40582;53.100;6.686;2022-12-05T08:22:41;28.17;;;14.95;;
54683;SDS011;40582;53.100;6.686;2022-12-05T08:25:06;29.02;;;15.18;;
54683;SDS011;40582;53.100;6.686;2022-12-05T08:27:32;32.50;;;14.98;;
54683;SDS011;40582;53.100;6.686;2022-12-05T08:29:58;30.55;;;16.35;;
54683;SDS011;40582;53.100;6.686;2022-12-05T08:32:24;26.33;;;14.93;;
54683;SDS011;40582;53.100;6.686;2022-12-05T08:34:49;27.73;;;15.02;;
54683;SDS011;40582;53.100;6.686;2022-12-05T08:37:15;33.22;;;16.00;;
54683;SDS011;40582;53.100;6.686;2022-12-05T08:39:41;27.95;;;14.38;;
54683;SDS011;40582;53.100;6.686;2022-12-05T08:42:06;28.88;;;13.73;;
54683;SDS011;40582;53.100;6.686;2022-12-05T08:44:32;27.77;;;14.82;;
54683;SDS011;40582;53.100;6.686;2022-12-05T08:46:57;29.45;;;14.27;;
54683;SDS011;40582;53.100;6.686;2022-12-05T08:49:23;34.33;;;14.77;;
54683;SDS011;40582;53.100;6.686;2022-12-05T08:51:49;28.02;;;14.85;;
54683;SDS011;40582;53.100;6.686;2022-12-05T08:54:14;22.27;;;13.63;;
54683;SDS011;40582;53.100;6.686;2022-12-05T08:56:40;22.13;;;12.95;;
54683;SDS011;40582;53.100;6.686;2022-12-05T08:59:06;29.52;;;14.77;;
54683;SDS011;40582;53.100;6.686;2022-12-05T09:01:32;25.25;;;14.50;;
54683;SDS011;40582;53.100;6.686;2022-12-05T09:04:02;25.65;;;14.00;;
54683;SDS011;40582;53.100;6.686;2022-12-05T09:06:29;29.30;;;14.25;;
54683;SDS011;40582;53.100;6.686;2022-12-05T09:08:56;30.48;;;16.25;;
54683;SDS011;40582;53.100;6.686;2022-12-05T09:11:30;29.98;;;17.33;;
54683;SDS011;40582;53.100;6.686;2022-12-05T09:13:57;33.20;;;16.55;;
54683;SDS011;40582;53.100;6.686;2022-12-05T09:16:25;29.17;;;15.75;;
54683;SDS011;40582;53.100;6.686;2022-12-05T09:18:56;24.75;;;16.15;;
54683;SDS011;40582;53.100;6.686;2022-12-05T09:21:24;35.25;;;16.17;;
54683;SDS011;40582;53.100;6.686;2022-12-05T09:23:52;31.75;;;16.58;;
54683;SDS011;40582;53.100;6.686;2022-12-05T09:26:20;29.98;;;14.82;;
54683;SDS011;40582;53.100;6.686;2022-12-05T09:28:47;23.98;;;14.32;;
54683;SDS011;40582;53.100;6.686;2022-12-05T09:31:17;25.80;;;14.27;;
54683;SDS011;40582;53.100;6.686;2022-12-05T09:33:45;22.42;;;14.32;;
54683;SDS011;40582;53.100;6.686;2022-12-05T09:36:13;23.17;;;13.80;;
54683;SDS011;40582;53.100;6.686;2022-12-05T09:38:40;24.63;;;12.82;;
54683;SDS011;40582;53.100;6.686;2022-12-05T09:52:42;22.80;;;12.00;;
54683;SDS011;40582;53.100;6.686;2022-12-05T09:55:17;24.45;;;12.73;;
54683;SDS011;40582;53.100;6.686;2022-12-05T09:57:50;26.58;;;13.25;;
54683;SDS011;40582;53.100;6.686;2022-12-05T10:00:20;21.38;;;12.98;;
54683;SDS011;40582;53.100;6.686;2022-12-05T10:05:38;22.50;;;13.73;;
54683;SDS011;40582;53.100;6.686;2022-12-05T10:08:13;26.35;;;14.10;;
54683;SDS011;40582;53.100;6.686;2022-12-05T10:16:20;24.30;;;13.20;;
54683;SDS011;40582;53.100;6.686;2022-12-05T10:19:15;22.05;;;12.80;;
54683;SDS011;40582;53.100;6.686;2022-12-05T10:21:54;21.92;;;12.70;;
54683;SDS011;40582;53.100;6.686;2022-12-05T10:24:46;21.92;;;12.80;;
54683;SDS011;40582;53.100;6.686;2022-12-05T10:27:20;21.83;;;12.07;;
54683;SDS011;40582;53.100;6.686;2022-12-05T10:29:57;25.25;;;12.32;;
54683;SDS011;40582;53.100;6.686;2022-12-05T10:32:58;23.15;;;12.73;;
54683;SDS011;40582;53.100;6.686;2022-12-05T10:35:29;17.83;;;12.07;;
54683;SDS011;40582;53.100;6.686;2022-12-05T10:38:01;19.10;;;11.20;;
54683;SDS011;40582;53.100;6.686;2022-12-05T10:40:35;25.90;;;11.32;;
54683;SDS011;40582;53.100;6.686;2022-12-05T10:43:04;17.50;;;10.02;;
54683;SDS011;40582;53.100;6.686;2022-12-05T10:45:32;16.65;;;9.57;;
54683;SDS011;40582;53.100;6.686;2022-12-05T10:48:04;18.77;;;9.90;;
54683;SDS011;40582;53.100;6.686;2022-12-05T10:50:35;17.13;;;10.65;;
54683;SDS011;40582;53.100;6.686;2022-12-05T10:53:03;16.45;;;9.95;;
54683;SDS011;40582;53.100;6.686;2022-12-05T10:55:33;17.80;;;10.18;;
54683;SDS011;40582;53.100;6.686;2022-12-05T10:58:13;14.88;;;9.30;;
54683;SDS011;40582;53.100;6.686;2022-12-05T11:00:43;17.23;;;11.07;;
54683;SDS011;40582;53.100;6.686;2022-12-05T11:03:25;14.15;;;10.10;;
54683;SDS011;40582;53.100;6.686;2022-12-05T11:05:59;16.95;;;10.73;;
54683;SDS011;40582;53.100;6.686;2022-12-05T11:08:30;21.20;;;11.77;;
54683;SDS011;40582;53.100;6.686;2022-12-05T11:11:04;18.65;;;11.20;;
54683;SDS011;40582;53.100;6.686;2022-12-05T11:13:33;17.52;;;10.32;;
54683;SDS011;40582;53.100;6.686;2022-12-05T11:15:59;19.02;;;10.80;;
54683;SDS011;40582;53.100;6.686;2022-12-05T11:18:29;17.27;;;10.55;;
54683;SDS011;40582;53.100;6.686;2022-12-05T11:21:11;17.98;;;10.95;;
54683;SDS011;40582;53.100;6.686;2022-12-05T11:23:38;20.55;;;11.82;;
54683;SDS011;40582;53.100;6.686;2022-12-05T11:26:13;18.13;;;12.43;;
54683;SDS011;40582;53.100;6.686;2022-12-05T11:28:58;24.00;;;13.00;;
54683;SDS011;40582;53.100;6.686;2022-12-05T11:31:25;22.75;;;13.85;;
54683;SDS011;40582;53.100;6.686;2022-12-05T11:34:12;19.33;;;11.82;;
54683;SDS011;40582;53.100;6.686;2022-12-05T11:36:47;21.88;;;11.73;;
54683;SDS011;40582;53.100;6.686;2022-12-05T11:39:18;20.40;;;11.55;;
54683;SDS011;40582;53.100;6.686;2022-12-05T11:44:31;19.63;;;12.32;;
54683;SDS011;40582;53.100;6.686;2022-12-05T11:47:23;21.95;;;12.70;;
54683;SDS011;40582;53.100;6.686;2022-12-05T11:50:23;26.50;;;14.75;;
54683;SDS011;40582;53.100;6.686;2022-12-05T11:53:09;22.20;;;12.38;;
54683;SDS011;40582;53.100;6.686;2022-12-05T11:56:37;23.63;;;13.43;;
54683;SDS011;40582;53.100;6.686;2022-12-05T12:10:30;18.10;;;10.57;;
54683;SDS011;40582;53.100;6.686;2022-12-05T12:25:47;20.35;;;11.25;;
54683;SDS011;40582;53.100;6.686;2022-12-05T12:45:16;15.95;;;9.43;;
54683;SDS011;40582;53.100;6.686;2022-12-05T12:50:25;18.98;;;9.95;;
54683;SDS011;40582;53.100;6.686;2022-12-05T13:05:19;15.82;;;8.57;;
54683;SDS011;40582;53.100;6.686;2022-12-05T13:07:58;21.70;;;9.38;;
54683;SDS011;40582;53.100;6.686;2022-12-05T13:13:12;19.40;;;10.48;;
54683;SDS011;40582;53.100;6.686;2022-12-05T13:15:51;14.65;;;9.45;;
54683;SDS011;40582;53.100;6.686;2022-12-05T13:18:20;17.33;;;9.68;;
54683;SDS011;40582;53.100;6.686;2022-12-05T13:20:51;15.77;;;9.90;;
54683;SDS011;40582;53.100;6.686;2022-12-05T13:23:29;17.23;;;8.80;;
54683;SDS011;40582;53.100;6.686;2022-12-05T13:25:58;16.30;;;8.75;;
54683;SDS011;40582;53.100;6.686;2022-12-05T13:28:27;18.27;;;8.85;;
54683;SDS011;40582;53.100;6.686;2022-12-05T13:30:58;19.52;;;9.02;;
54683;SDS011;40582;53.100;6.686;2022-12-05T13:36:21;17.08;;;8.30;;
54683;SDS011;40582;53.100;6.686;2022-12-05T13:39:11;24.15;;;10.75;;
54683;SDS011;40582;53.100;6.686;2022-12-05T13:42:01;25.10;;;9.35;;
54683;SDS011;40582;53.100;6.686;2022-12-05T13:44:56;17.42;;;9.52;;
54683;SDS011;40582;53.100;6.686;2022-12-05T13:47:38;19.02;;;8.38;;
54683;SDS011;40582;53.100;6.686;2022-12-05T13:52:54;17.30;;;8.65;;
54683;SDS011;40582;53.100;6.686;2022-12-05T13:55:33;20.42;;;8.45;;
54683;SDS011;40582;53.100;6.686;2022-12-05T13:58:46;15.65;;;7.88;;
54683;SDS011;40582;53.100;6.686;2022-12-05T14:05:50;13.00;;;7.95;;
54683;SDS011;40582;53.100;6.686;2022-12-05T14:15:46;13.57;;;7.70;;
54683;SDS011;40582;53.100;6.686;2022-12-05T14:18:38;18.73;;;8.13;;
54683;SDS011;40582;53.100;6.686;2022-12-05T14:21:21;16.33;;;8.07;;
54683;SDS011;40582;53.100;6.686;2022-12-05T14:29:38;20.95;;;9.82;;
54683;SDS011;40582;53.100;6.686;2022-12-05T14:32:28;21.52;;;10.40;;
54683;SDS011;40582;53.100;6.686;2022-12-05T14:37:29;15.35;;;9.73;;
54683;SDS011;40582;53.100;6.686;2022-12-05T14:43:19;16.55;;;9.57;;
54683;SDS011;40582;53.100;6.686;2022-12-05T14:45:57;16.83;;;9.05;;
54683;SDS011;40582;53.100;6.686;2022-12-05T14:50:56;15.95;;;8.13;;
54683;SDS011;40582;53.100;6.686;2022-12-05T14:53:41;20.75;;;8.93;;
54683;SDS011;40582;53.100;6.686;2022-12-05T14:56:09;16.10;;;8.40;;
54683;SDS011;40582;53.100;6.686;2022-12-05T15:03:51;17.15;;;9.85;;
54683;SDS011;40582;53.100;6.686;2022-12-05T15:06:22;20.45;;;9.40;;
54683;SDS011;40582;53.100;6.686;2022-12-05T15:08:50;20.95;;;10.50;;
54683;SDS011;40582;53.100;6.686;2022-12-05T15:11:22;25.35;;;9.27;;
54683;SDS011;40582;53.100;6.686;2022-12-05T15:13:56;16.58;;;8.63;;
54683;SDS011;40582;53.100;6.686;2022-12-05T15:16:33;19.05;;;9.00;;
54683;SDS011;40582;53.100;6.686;2022-12-05T15:19:05;19.17;;;9.30;;
54683;SDS011;40582;53.100;6.686;2022-12-05T15:21:40;15.50;;;8.13;;
54683;SDS011;40582;53.100;6.686;2022-12-05T15:24:16;21.35;;;9.27;;
54683;SDS011;40582;53.100;6.686;2022-12-05T15:26:53;21.02;;;8.88;;
54683;SDS011;40582;53.100;6.686;2022-12-05T15:31:57;17.73;;;8.07;;
54683;SDS011;40582;53.100;6.686;2022-12-05T15:34:30;15.80;;;7.97;;
54683;SDS011;40582;53.100;6.686;2022-12-05T15:37:19;17.75;;;7.95;;
54683;SDS011;40582;53.100;6.686;2022-12-05T15:39:51;13.45;;;7.70;;
54683;SDS011;40582;53.100;6.686;2022-12-05T15:42:23;16.88;;;7.50;;
54683;SDS011;40582;53.100;6.686;2022-12-05T15:45:17;14.40;;;7.45;;
54683;SDS011;40582;53.100;6.686;2022-12-05T15:48:09;11.93;;;7.75;;
54683;SDS011;40582;53.100;6.686;2022-12-05T15:53:22;15.10;;;8.15;;
54683;SDS011;40582;53.100;6.686;2022-12-05T15:56:06;13.27;;;7.03;;
54683;SDS011;40582;53.100;6.686;2022-12-05T16:01:13;12.50;;;7.68;;
54683;SDS011;40582;53.100;6.686;2022-12-05T16:06:23;12.43;;;7.30;;
54683;SDS011;40582;53.100;6.686;2022-12-05T16:08:58;12.98;;;7.07;;
54683;SDS011;40582;53.100;6.686;2022-12-05T16:11:29;11.63;;;6.60;;
54683;SDS011;40582;53.100;6.686;2022-12-05T16:13:58;12.13;;;7.13;;
54683;SDS011;40582;53.100;6.686;2022-12-05T16:16:28;13.95;;;7.43;;
54683;SDS011;40582;53.100;6.686;2022-12-05T16:19:03;11.90;;;6.45;;
54683;SDS011;40582;53.100;6.686;2022-12-05T16:21:46;11.32;;;7.15;;
54683;SDS011;40582;53.100;6.686;2022-12-05T16:24:31;12.32;;;6.30;;
54683;SDS011;40582;53.100;6.686;2022-12-05T16:27:17;12.80;;;7.20;;
54683;SDS011;40582;53.100;6.686;2022-12-05T16:30:04;13.25;;;6.93;;
54683;SDS011;40582;53.100;6.686;2022-12-05T16:32:36;15.90;;;7.35;;
54683;SDS011;40582;53.100;6.686;2022-12-05T16:35:03;11.10;;;7.07;;
54683;SDS011;40582;53.100;6.686;2022-12-05T16:38:08;20.80;;;8.73;;
54683;SDS011;40582;53.100;6.686;2022-12-05T16:40:48;11.73;;;7.55;;
54683;SDS011;40582;53.100;6.686;2022-12-05T16:45:52;22.95;;;9.90;;
54683;SDS011;40582;53.100;6.686;2022-12-05T16:50:49;13.68;;;7.82;;
54683;SDS011;40582;53.100;6.686;2022-12-05T16:53:20;14.20;;;7.72;;
54683;SDS011;40582;53.100;6.686;2022-12-05T16:55:52;12.50;;;7.95;;
54683;SDS011;40582;53.100;6.686;2022-12-05T16:58:20;15.27;;;7.90;;
54683;SDS011;40582;53.100;6.686;2022-12-05T17:00:49;22.27;;;9.35;;
54683;SDS011;40582;53.100;6.686;2022-12-05T17:03:15;14.35;;;9.30;;
54683;SDS011;40582;53.100;6.686;2022-12-05T17:05:41;12.02;;;7.82;;
54683;SDS011;40582;53.100;6.686;2022-12-05T17:08:07;17.13;;;8.95;;
54683;SDS011;40582;53.100;6.686;2022-12-05T17:10:33;15.30;;;8.35;;
54683;SDS011;40582;53.100;6.686;2022-12-05T17:12:59;18.92;;;9.35;;
54683;SDS011;40582;53.100;6.686;2022-12-05T17:15:26;19.08;;;11.50;;
54683;SDS011;40582;53.100;6.686;2022-12-05T17:17:54;22.63;;;10.73;;
54683;SDS011;40582;53.100;6.686;2022-12-05T17:20:19;18.27;;;10.00;;
54683;SDS011;40582;53.100;6.686;2022-12-05T17:22:45;19.33;;;9.75;;
54683;SDS011;40582;53.100;6.686;2022-12-05T17:25:15;23.15;;;11.68;;
54683;SDS011;40582;53.100;6.686;2022-12-05T17:27:41;17.30;;;9.15;;
54683;SDS011;40582;53.100;6.686;2022-12-05T17:30:07;23.98;;;11.05;;
54683;SDS011;40582;53.100;6.686;2022-12-05T17:32:33;18.85;;;10.20;;
54683;SDS011;40582;53.100;6.686;2022-12-05T17:34:59;18.42;;;10.07;;
54683;SDS011;40582;53.100;6.686;2022-12-05T17:37:24;27.65;;;10.70;;
54683;SDS011;40582;53.100;6.686;2022-12-05T17:39:50;18.88;;;8.98;;
54683;SDS011;40582;53.100;6.686;2022-12-05T17:42:16;15.82;;;9.00;;
54683;SDS011;40582;53.100;6.686;2022-12-05T17:44:41;19.55;;;9.20;;
54683;SDS011;40582;53.100;6.686;2022-12-05T17:47:07;23.10;;;9.90;;